createdAt,value
2022-09-27T00:04:26.114Z,964
2022-09-27T00:09:27.697Z,963
2022-09-27T00:14:29.309Z,963
2022-09-27T00:19:30.991Z,963
2022-09-27T00:24:32.740Z,963
2022-09-27T00:29:34.342Z,963
2022-09-27T00:34:35.984Z,963
2022-09-27T00:39:37.621Z,963
2022-09-27T00:44:39.226Z,963
2022-09-27T00:49:40.840Z,963
2022-09-27T00:54:42.485Z,963
2022-09-27T00:59:44.142Z,963
2022-09-27T01:04:45.803Z,963
2022-09-27T01:09:47.408Z,963
2022-09-27T01:14:48.987Z,963
2022-09-27T01:19:50.600Z,963
2022-09-27T01:24:52.290Z,963
2022-09-27T01:29:53.900Z,963
2022-09-27T01:34:55.480Z,963
2022-09-27T01:39:57.110Z,963
2022-09-27T01:44:58.727Z,963
2022-09-27T01:50:00.417Z,963
2022-09-27T01:55:02.048Z,963
2022-09-27T02:00:03.675Z,964
2022-09-27T02:05:05.276Z,964
2022-09-27T02:10:06.919Z,964
2022-09-27T02:15:08.572Z,964
2022-09-27T02:20:10.174Z,964
2022-09-27T02:25:11.799Z,964
2022-09-27T02:30:13.421Z,964
2022-09-27T02:35:15.024Z,964
2022-09-27T02:40:16.721Z,964
2022-09-27T02:45:18.409Z,964
2022-09-27T02:50:19.991Z,964
2022-09-27T02:55:21.614Z,964
2022-09-27T03:00:23.229Z,964
2022-09-27T03:05:24.864Z,964
2022-09-27T03:10:26.497Z,964
2022-09-27T03:15:28.171Z,964
2022-09-27T03:20:29.812Z,964
2022-09-27T03:25:31.432Z,964
2022-09-27T03:30:33.100Z,964
2022-09-27T03:35:34.755Z,964
2022-09-27T03:40:36.646Z,964
2022-09-27T03:45:38.316Z,964
2022-09-27T03:50:39.923Z,964
2022-09-27T03:55:41.570Z,964
2022-09-27T04:00:43.144Z,964
2022-09-27T04:05:44.745Z,964
2022-09-27T04:10:46.363Z,964
2022-09-27T04:15:52.012Z,964
2022-09-27T04:20:54.406Z,964
2022-09-27T04:25:56.012Z,964
2022-09-27T04:30:57.711Z,964
2022-09-27T04:35:59.427Z,964
2022-09-27T04:41:01.138Z,964
2022-09-27T04:46:02.909Z,964
2022-09-27T04:51:05.263Z,965
2022-09-27T04:56:07.003Z,965
2022-09-27T05:01:08.690Z,965
2022-09-27T05:06:10.322Z,965
2022-09-27T05:11:11.901Z,965
2022-09-27T05:16:13.541Z,965
2022-09-27T05:21:15.265Z,965
2022-09-27T05:26:16.922Z,965
2022-09-27T05:31:18.606Z,965
2022-09-27T05:36:20.435Z,965
2022-09-27T05:41:22.777Z,965
2022-09-27T05:46:24.646Z,965
2022-09-27T05:51:26.240Z,965
2022-09-27T05:56:27.980Z,965
2022-09-27T06:01:29.655Z,965
2022-09-27T06:06:31.278Z,965
2022-09-27T06:11:32.884Z,965
2022-09-27T06:16:34.472Z,965
2022-09-27T06:21:36.052Z,965
2022-09-27T06:26:37.595Z,965
2022-09-27T06:31:39.168Z,965
2022-09-27T06:36:40.719Z,965
2022-09-27T06:41:42.264Z,965
2022-09-27T06:46:43.834Z,965
2022-09-27T06:51:45.476Z,965
2022-09-27T06:56:47.151Z,965
2022-09-27T07:01:48.762Z,965
2022-09-27T07:06:50.344Z,965
2022-09-27T07:11:51.937Z,965
2022-09-27T07:16:53.603Z,965
2022-09-27T07:21:55.225Z,965
2022-09-27T07:26:56.837Z,965
2022-09-27T07:31:58.410Z,965
2022-09-27T07:36:59.957Z,965
2022-09-27T07:42:01.553Z,965
2022-09-27T07:47:03.141Z,965
2022-09-27T07:52:04.766Z,965
2022-09-27T07:57:06.369Z,965
2022-09-27T08:02:08.005Z,965
2022-09-27T08:07:13.706Z,965
2022-09-27T08:12:16.023Z,965
2022-09-27T08:17:17.601Z,965
2022-09-27T08:22:19.245Z,965
2022-09-27T08:27:20.908Z,965
2022-09-27T08:32:23.605Z,965
2022-09-27T08:37:25.351Z,965
2022-09-27T08:42:26.966Z,965
2022-09-27T08:47:28.545Z,965
2022-09-27T08:52:30.124Z,965
2022-09-27T08:57:31.737Z,965
2022-09-27T09:02:33.427Z,965
2022-09-27T09:07:35.047Z,965
2022-09-27T09:12:36.786Z,965
2022-09-27T09:17:38.406Z,965
2022-09-27T09:22:40.018Z,965
2022-09-27T09:27:41.689Z,966
2022-09-27T09:32:43.304Z,966
2022-09-27T09:37:44.958Z,966
2022-09-27T09:42:46.556Z,966
2022-09-27T09:47:48.176Z,966
2022-09-27T09:52:49.779Z,966
2022-09-27T09:57:51.365Z,966
2022-09-27T10:02:52.930Z,966
2022-09-27T10:07:54.559Z,966
2022-09-27T10:12:56.151Z,965
2022-09-27T10:17:57.760Z,965
2022-09-27T10:22:59.376Z,966
2022-09-27T10:28:00.991Z,965
2022-09-27T10:33:02.582Z,966
2022-09-27T10:38:04.167Z,966
2022-09-27T10:43:05.805Z,966
2022-09-27T10:48:07.489Z,966
2022-09-27T10:53:09.101Z,966
2022-09-27T10:58:10.727Z,966
2022-09-27T11:03:12.580Z,966
2022-09-27T11:08:14.233Z,966
2022-09-27T11:13:15.850Z,966
2022-09-27T11:18:17.476Z,966
2022-09-27T11:23:19.051Z,966
2022-09-27T11:28:20.635Z,966
2022-09-27T11:33:22.207Z,966
2022-09-27T11:38:48.076Z,966
2022-09-27T11:43:53.659Z,966
2022-09-27T11:48:55.381Z,966
2022-09-27T11:53:56.972Z,966
2022-09-27T11:58:58.713Z,966
2022-09-27T12:04:00.346Z,966
2022-09-27T12:09:02.043Z,966
2022-09-27T12:14:03.627Z,966
2022-09-27T12:19:05.235Z,966
2022-09-27T12:24:06.812Z,966
2022-09-27T12:29:08.400Z,966
2022-09-27T12:34:10.021Z,966
2022-09-27T12:39:11.683Z,966
2022-09-27T12:44:13.492Z,966
2022-09-27T12:49:15.366Z,966
2022-09-27T12:54:17.266Z,966
2022-09-27T12:59:18.869Z,966
2022-09-27T13:04:20.470Z,966
2022-09-27T13:09:22.127Z,966
2022-09-27T13:14:23.747Z,966
2022-09-27T13:19:27.210Z,966
2022-09-27T13:24:28.940Z,966
2022-09-27T13:29:30.590Z,966
2022-09-27T13:34:32.184Z,966
2022-09-27T13:39:33.787Z,966
2022-09-27T13:44:35.421Z,966
2022-09-27T13:49:37.022Z,966
2022-09-27T13:54:38.582Z,966
2022-09-27T13:59:40.217Z,966
2022-09-27T14:04:41.800Z,966
2022-09-27T14:09:43.400Z,966
2022-09-27T14:14:45.058Z,966
2022-09-27T14:19:46.663Z,966
2022-09-27T14:24:48.247Z,966
2022-09-27T14:29:49.834Z,966
2022-09-27T14:34:51.423Z,966
2022-09-27T14:39:53.050Z,966
2022-09-27T14:44:54.634Z,966
2022-09-27T14:49:56.251Z,966
2022-09-27T14:54:57.854Z,966
2022-09-27T14:59:59.444Z,966
2022-09-27T15:05:01.103Z,966
2022-09-27T15:10:02.750Z,966
2022-09-27T15:15:04.357Z,966
2022-09-27T15:20:05.989Z,966
2022-09-27T15:25:07.695Z,966
2022-09-27T15:30:09.987Z,966
2022-09-27T15:35:11.562Z,966
2022-09-27T15:40:13.147Z,966
2022-09-27T15:45:14.757Z,966
2022-09-27T15:50:16.326Z,966
2022-09-27T15:55:17.930Z,966
2022-09-27T16:00:19.620Z,966
2022-09-27T16:05:21.217Z,966
2022-09-27T16:10:22.989Z,966
2022-09-27T16:15:24.572Z,966
2022-09-27T16:20:26.200Z,965
2022-09-27T16:25:27.838Z,965
2022-09-27T16:30:29.424Z,965
2022-09-27T16:35:31.023Z,965
2022-09-27T16:40:32.698Z,965
2022-09-27T16:45:34.292Z,965
2022-09-27T16:50:35.935Z,965
2022-09-27T16:55:37.508Z,965
2022-09-27T17:00:39.099Z,965
2022-09-27T17:05:40.763Z,965
2022-09-27T17:10:42.377Z,965
2022-09-27T17:15:44.011Z,965
2022-09-27T17:20:45.673Z,965
2022-09-27T17:25:47.332Z,965
2022-09-27T17:30:49.060Z,965
2022-09-27T17:35:50.663Z,965
2022-09-27T17:40:52.288Z,964
2022-09-27T17:45:53.950Z,964
2022-09-27T17:50:55.617Z,964
2022-09-27T17:55:57.234Z,964
2022-09-27T18:01:00.990Z,964
2022-09-27T18:06:02.845Z,964
2022-09-27T18:11:04.491Z,964
2022-09-27T18:16:06.173Z,964
2022-09-27T18:21:07.845Z,964
2022-09-27T18:26:09.424Z,964
2022-09-27T18:31:11.170Z,964
2022-09-27T18:36:12.787Z,964
2022-09-27T18:41:14.441Z,964
2022-09-27T18:46:34.490Z,964
2022-09-27T18:51:37.841Z,963
2022-09-27T18:56:39.767Z,963
2022-09-27T19:01:41.444Z,963
2022-09-27T19:06:43.092Z,963
2022-09-27T19:11:44.676Z,963
2022-09-27T19:16:46.339Z,963
2022-09-27T19:21:47.970Z,963
2022-09-27T19:26:49.610Z,963
2022-09-27T19:31:51.391Z,963
2022-09-27T19:36:53.070Z,962
2022-09-27T19:41:54.699Z,962
2022-09-27T19:46:56.451Z,962
2022-09-27T19:51:58.111Z,962
2022-09-27T19:56:59.699Z,962
2022-09-27T20:02:01.402Z,962
2022-09-27T20:07:03.052Z,962
2022-09-27T20:12:04.708Z,962
2022-09-27T20:17:06.397Z,962
2022-09-27T20:22:08.027Z,962
2022-09-27T20:27:09.613Z,961
2022-09-27T20:32:27.290Z,961
2022-09-27T20:37:29.434Z,961
2022-09-27T20:42:31.129Z,961
2022-09-27T20:47:32.780Z,961
2022-09-27T20:52:34.443Z,961
2022-09-27T20:57:56.321Z,961
2022-09-27T21:02:59.361Z,961
2022-09-27T21:08:00.990Z,961
2022-09-27T21:13:02.603Z,961
2022-09-27T21:18:04.189Z,960
2022-09-27T21:23:05.833Z,960
2022-09-27T21:28:07.384Z,960
2022-09-27T21:33:08.975Z,960
2022-09-27T21:38:10.594Z,960
2022-09-27T21:43:12.265Z,960
2022-09-27T21:48:13.932Z,960
2022-09-27T21:53:15.549Z,960
2022-09-27T21:58:17.159Z,960
2022-09-27T22:03:18.782Z,960
2022-09-27T22:08:20.370Z,960
2022-09-27T22:13:21.971Z,959
2022-09-27T22:18:23.558Z,959
2022-09-27T22:23:25.187Z,959
2022-09-27T22:28:26.811Z,959
2022-09-27T22:33:28.476Z,959
2022-09-27T22:38:30.122Z,959
2022-09-27T22:43:31.727Z,959
2022-09-27T22:48:33.364Z,959
2022-09-27T22:53:34.983Z,959
2022-09-27T22:58:36.893Z,959
2022-09-27T23:03:38.609Z,959
2022-09-27T23:08:40.217Z,959
2022-09-27T23:13:41.835Z,959
2022-09-27T23:18:43.487Z,959
2022-09-27T23:23:45.150Z,959
2022-09-27T23:28:46.812Z,958
2022-09-27T23:33:48.413Z,958
2022-09-27T23:38:50.026Z,958
2022-09-27T23:43:51.655Z,958
2022-09-27T23:48:53.253Z,958
2022-09-27T23:53:54.878Z,958
2022-09-27T23:58:56.453Z,958
